createdAt,value
2017-12-30T00:00:50.288Z,996.53
2017-12-30T00:01:50.256Z,996.51
2017-12-30T00:02:50.220Z,996.54
2017-12-30T00:03:50.187Z,996.54
2017-12-30T00:04:50.156Z,996.46
2017-12-30T00:05:50.381Z,996.59
2017-12-30T00:06:50.089Z,996.51
2017-12-30T00:07:50.061Z,996.61
2017-12-30T00:08:50.029Z,996.54
2017-12-30T00:09:50.001Z,996.54
2017-12-30T00:10:49.964Z,996.63
2017-12-30T00:11:49.928Z,996.38
2017-12-30T00:12:49.911Z,996.52
2017-12-30T00:13:49.876Z,996.59
2017-12-30T00:14:49.830Z,996.55
2017-12-30T00:15:49.801Z,996.58
2017-12-30T00:16:49.765Z,996.62
2017-12-30T00:17:49.737Z,996.64
2017-12-30T00:18:49.716Z,996.56
2017-12-30T00:19:49.670Z,996.56
2017-12-30T00:20:49.641Z,996.58
2017-12-30T00:21:49.614Z,996.51
2017-12-30T00:22:49.581Z,996.63
2017-12-30T00:23:49.545Z,996.59
2017-12-30T00:24:49.517Z,996.61
2017-12-30T00:25:49.484Z,996.42
2017-12-30T00:26:49.450Z,996.47
2017-12-30T00:27:49.417Z,996.42
2017-12-30T00:28:49.386Z,996.29
2017-12-30T00:29:49.347Z,996.51
2017-12-30T00:30:49.351Z,996.51
2017-12-30T00:31:49.293Z,996.47
2017-12-30T00:32:49.264Z,996.34
2017-12-30T00:33:49.219Z,996.41
2017-12-30T00:34:49.442Z,996.38
2017-12-30T00:35:49.166Z,996.42
2017-12-30T00:36:49.137Z,996.26
2017-12-30T00:37:49.100Z,996.42
2017-12-30T00:38:49.067Z,996.32
2017-12-30T00:39:49.028Z,996.41
2017-12-30T00:40:49.257Z,996.44
2017-12-30T00:41:48.977Z,996.43
2017-12-30T00:42:48.932Z,996.47
2017-12-30T00:43:48.909Z,996.40
2017-12-30T00:44:48.868Z,996.37
2017-12-30T00:45:48.843Z,996.40
2017-12-30T00:46:48.816Z,996.43
2017-12-30T00:47:48.779Z,996.43
2017-12-30T00:48:48.757Z,996.35
2017-12-30T00:49:48.710Z,996.36
2017-12-30T00:50:48.686Z,996.34
2017-12-30T00:51:48.666Z,996.38
2017-12-30T00:52:48.620Z,996.19
2017-12-30T00:53:48.597Z,996.25
2017-12-30T00:54:48.551Z,996.26
2017-12-30T00:55:48.523Z,996.25
2017-12-30T00:56:48.498Z,996.33
2017-12-30T00:57:48.461Z,996.32
2017-12-30T00:58:48.734Z,996.31
2017-12-30T00:59:48.398Z,996.32
2017-12-30T01:00:48.367Z,996.37
2017-12-30T01:01:48.327Z,996.36
2017-12-30T01:02:48.300Z,996.31
2017-12-30T01:03:48.274Z,996.33
2017-12-30T01:04:48.235Z,996.26
2017-12-30T01:05:48.211Z,996.34
2017-12-30T01:06:48.178Z,996.34
2017-12-30T01:07:48.143Z,996.26
2017-12-30T01:08:48.121Z,996.05
2017-12-30T01:09:48.089Z,996.22
2017-12-30T01:10:48.048Z,996.30
2017-12-30T01:11:48.015Z,996.23
2017-12-30T01:12:47.988Z,996.12
2017-12-30T01:13:47.950Z,996.05
2017-12-30T01:14:47.920Z,996.28
2017-12-30T01:15:47.885Z,996.30
2017-12-30T01:16:48.102Z,996.31
2017-12-30T01:17:47.818Z,996.15
2017-12-30T01:18:47.793Z,996.10
2017-12-30T01:19:47.759Z,996.21
2017-12-30T01:20:47.725Z,996.03
2017-12-30T01:21:47.700Z,996.17
2017-12-30T01:22:47.970Z,996.10
2017-12-30T01:23:47.634Z,996.19
2017-12-30T01:24:47.608Z,996.15
2017-12-30T01:25:47.569Z,996.13
2017-12-30T01:26:47.544Z,996.07
2017-12-30T01:27:47.501Z,996.18
2017-12-30T01:28:47.474Z,996.24
2017-12-30T01:29:47.444Z,996.06
2017-12-30T01:30:47.416Z,995.95
2017-12-30T01:31:47.388Z,996.06
2017-12-30T01:32:47.349Z,996.08
2017-12-30T01:33:47.312Z,996.06
2017-12-30T01:34:47.291Z,996.01
2017-12-30T01:35:47.279Z,996.05
2017-12-30T01:36:47.224Z,995.96
2017-12-30T01:37:47.185Z,995.92
2017-12-30T01:38:47.175Z,995.90
2017-12-30T01:39:47.126Z,995.83
2017-12-30T01:40:47.100Z,995.86
2017-12-30T01:41:47.068Z,995.89
2017-12-30T01:42:47.029Z,995.91
2017-12-30T01:43:47.005Z,995.92
2017-12-30T01:44:46.973Z,995.95
2017-12-30T01:45:46.944Z,995.95
2017-12-30T01:46:47.161Z,995.90
2017-12-30T01:47:46.876Z,995.84
2017-12-30T01:48:46.846Z,995.83
2017-12-30T01:49:46.808Z,995.90
2017-12-30T01:50:46.782Z,995.86
2017-12-30T01:51:46.749Z,995.81
2017-12-30T01:52:46.724Z,995.73
2017-12-30T01:53:46.692Z,995.69
2017-12-30T01:54:46.661Z,995.85
2017-12-30T01:55:46.623Z,995.77
2017-12-30T01:56:46.595Z,995.77
2017-12-30T01:57:46.564Z,995.67
2017-12-30T01:58:46.530Z,995.81
2017-12-30T01:59:46.507Z,995.76
2017-12-30T02:00:46.468Z,995.79
2017-12-30T02:01:46.432Z,995.78
2017-12-30T02:02:46.406Z,995.76
2017-12-30T02:03:46.368Z,995.74
2017-12-30T02:04:46.333Z,995.70
2017-12-30T02:05:46.310Z,995.69
2017-12-30T02:06:46.277Z,995.65
2017-12-30T02:07:46.242Z,995.43
2017-12-30T02:08:46.215Z,995.69
2017-12-30T02:09:46.177Z,995.61
2017-12-30T02:10:47.008Z,995.74
2017-12-30T02:11:46.126Z,995.71
2017-12-30T02:12:46.087Z,995.72
2017-12-30T02:13:46.055Z,995.80
2017-12-30T02:14:46.021Z,995.70
2017-12-30T02:15:45.991Z,995.73
2017-12-30T02:16:46.264Z,995.65
2017-12-30T02:17:45.937Z,995.67
2017-12-30T02:18:45.896Z,995.59
2017-12-30T02:19:45.864Z,995.59
2017-12-30T02:20:45.837Z,995.62
2017-12-30T02:21:45.810Z,995.53
2017-12-30T02:22:46.021Z,995.53
2017-12-30T02:23:45.743Z,995.68
2017-12-30T02:24:45.707Z,995.69
2017-12-30T02:25:45.691Z,995.63
2017-12-30T02:26:45.651Z,995.70
2017-12-30T02:27:45.617Z,995.62
2017-12-30T02:28:45.589Z,995.61
2017-12-30T02:29:45.553Z,995.61
2017-12-30T02:30:45.522Z,995.58
2017-12-30T02:31:45.497Z,995.64
2017-12-30T02:32:45.454Z,995.48
2017-12-30T02:33:45.429Z,995.43
2017-12-30T02:34:45.408Z,995.53
2017-12-30T02:35:45.370Z,995.47
2017-12-30T02:36:45.521Z,995.53
2017-12-30T02:37:45.300Z,995.58
2017-12-30T02:38:45.272Z,995.54
2017-12-30T02:39:45.233Z,995.53
2017-12-30T02:40:45.212Z,995.53
2017-12-30T02:41:45.181Z,995.44
2017-12-30T02:42:45.151Z,995.36
2017-12-30T02:43:45.112Z,995.45
2017-12-30T02:44:45.086Z,995.48
2017-12-30T02:45:45.054Z,995.40
2017-12-30T02:46:45.025Z,995.35
2017-12-30T02:47:44.984Z,995.29
2017-12-30T02:48:44.950Z,995.32
2017-12-30T02:49:44.918Z,995.36
2017-12-30T02:50:44.899Z,995.18
2017-12-30T02:51:44.860Z,995.22
2017-12-30T02:52:45.079Z,995.33
2017-12-30T02:53:44.808Z,995.29
2017-12-30T02:54:44.766Z,995.30
2017-12-30T02:55:44.735Z,995.25
2017-12-30T02:56:44.712Z,995.15
2017-12-30T02:57:44.676Z,995.33
2017-12-30T02:58:44.941Z,995.29
2017-12-30T02:59:44.613Z,995.11
2017-12-30T03:00:44.583Z,995.26
2017-12-30T03:01:44.549Z,995.17
2017-12-30T03:02:44.520Z,995.16
2017-12-30T03:03:44.488Z,995.19
2017-12-30T03:04:44.458Z,995.35
2017-12-30T03:05:44.421Z,995.31
2017-12-30T03:06:44.401Z,995.15
2017-12-30T03:07:44.361Z,995.25
2017-12-30T03:08:44.343Z,995.21
2017-12-30T03:09:44.310Z,995.27
2017-12-30T03:10:44.275Z,995.19
2017-12-30T03:11:44.236Z,995.19
2017-12-30T03:12:44.205Z,995.14
2017-12-30T03:13:44.176Z,995.17
2017-12-30T03:14:44.146Z,995.14
2017-12-30T03:15:44.117Z,994.97
2017-12-30T03:16:44.079Z,995.09
2017-12-30T03:17:44.048Z,995.16
2017-12-30T03:18:44.035Z,995.03
2017-12-30T03:19:43.994Z,995.05
2017-12-30T03:20:43.952Z,995.09
2017-12-30T03:21:43.921Z,994.89
2017-12-30T03:22:44.204Z,994.93
2017-12-30T03:23:43.866Z,994.85
2017-12-30T03:24:43.834Z,994.89
2017-12-30T03:25:43.808Z,995.03
2017-12-30T03:26:43.767Z,994.97
2017-12-30T03:27:43.745Z,994.97
2017-12-30T03:28:44.173Z,994.95
2017-12-30T03:29:43.679Z,994.95
2017-12-30T03:30:43.647Z,995.02
2017-12-30T03:31:43.621Z,994.87
2017-12-30T03:32:43.586Z,995.09
2017-12-30T03:33:43.551Z,994.96
2017-12-30T03:34:43.527Z,995.09
2017-12-30T03:35:43.495Z,995.03
2017-12-30T03:36:43.454Z,994.87
2017-12-30T03:37:43.466Z,995.18
2017-12-30T03:38:43.413Z,995.02
2017-12-30T03:39:43.376Z,995.01
2017-12-30T03:40:43.346Z,994.96
2017-12-30T03:41:43.305Z,995.06
2017-12-30T03:42:43.283Z,994.88
2017-12-30T03:43:43.249Z,994.94
2017-12-30T03:44:43.219Z,994.86
2017-12-30T03:45:43.191Z,994.72
2017-12-30T03:46:43.145Z,994.85
2017-12-30T03:47:43.122Z,994.85
2017-12-30T03:48:43.095Z,994.77
2017-12-30T03:49:43.053Z,994.97
2017-12-30T03:50:43.026Z,995.19
2017-12-30T03:51:43.008Z,995.25
2017-12-30T03:52:42.969Z,994.90
2017-12-30T03:53:42.929Z,995.00
2017-12-30T03:54:42.915Z,994.94
2017-12-30T03:55:42.870Z,994.96
2017-12-30T03:56:42.841Z,994.72
2017-12-30T03:57:42.815Z,994.81
2017-12-30T03:58:42.788Z,995.05
2017-12-30T03:59:42.757Z,994.79
2017-12-30T04:00:42.716Z,995.14
2017-12-30T04:01:42.709Z,995.20
2017-12-30T04:02:42.653Z,994.70
2017-12-30T04:03:42.627Z,995.17
2017-12-30T04:04:42.600Z,994.69
2017-12-30T04:05:42.570Z,994.77
2017-12-30T04:06:42.534Z,994.74
2017-12-30T04:07:42.502Z,994.65
2017-12-30T04:08:42.477Z,995.15
2017-12-30T04:09:42.695Z,994.81
2017-12-30T04:10:42.419Z,994.84
2017-12-30T04:11:42.386Z,994.80
2017-12-30T04:12:42.358Z,994.89
2017-12-30T04:13:42.318Z,994.98
2017-12-30T04:14:42.285Z,994.82
2017-12-30T04:15:42.266Z,994.92
2017-12-30T04:16:42.229Z,994.91
2017-12-30T04:17:42.207Z,994.98
2017-12-30T04:18:42.164Z,995.05
2017-12-30T04:19:42.144Z,994.79
2017-12-30T04:20:42.100Z,994.88
2017-12-30T04:21:42.069Z,994.94
2017-12-30T04:22:42.047Z,994.93
2017-12-30T04:23:42.012Z,995.34
2017-12-30T04:24:41.988Z,995.22
2017-12-30T04:25:41.947Z,994.96
2017-12-30T04:26:41.925Z,995.21
2017-12-30T04:27:41.902Z,995.16
2017-12-30T04:28:41.861Z,995.21
2017-12-30T04:29:41.833Z,995.30
2017-12-30T04:30:41.802Z,995.25
2017-12-30T04:31:41.774Z,995.11
2017-12-30T04:32:41.741Z,995.18
2017-12-30T04:33:41.711Z,995.12
2017-12-30T04:34:41.682Z,995.04
2017-12-30T04:35:41.646Z,995.09
2017-12-30T04:36:41.660Z,995.05
2017-12-30T04:37:41.587Z,994.99
2017-12-30T04:38:41.553Z,995.14
2017-12-30T04:39:41.525Z,995.07
2017-12-30T04:40:41.502Z,995.11
2017-12-30T04:41:41.466Z,995.27
2017-12-30T04:42:41.438Z,995.06
2017-12-30T04:43:41.399Z,994.98
2017-12-30T04:44:41.381Z,995.14
2017-12-30T04:45:41.601Z,995.15
2017-12-30T04:46:41.317Z,994.93
2017-12-30T04:47:41.287Z,995.02
2017-12-30T04:48:41.248Z,994.96
2017-12-30T04:49:41.239Z,994.80
2017-12-30T04:50:41.199Z,994.95
2017-12-30T04:51:41.519Z,994.90
2017-12-30T04:52:41.138Z,994.81
2017-12-30T04:53:41.102Z,994.91
2017-12-30T04:54:41.074Z,995.12
2017-12-30T04:55:41.037Z,995.33
2017-12-30T04:56:41.016Z,995.15
2017-12-30T04:57:41.235Z,995.20
2017-12-30T04:58:40.955Z,995.20
2017-12-30T04:59:40.923Z,995.22
2017-12-30T05:00:40.890Z,995.07
2017-12-30T05:01:40.866Z,995.41
2017-12-30T05:02:40.829Z,994.70
2017-12-30T05:03:40.797Z,995.35
2017-12-30T05:04:40.770Z,994.99
2017-12-30T05:05:40.742Z,995.05
2017-12-30T05:06:40.709Z,995.19
2017-12-30T05:07:40.688Z,995.32
2017-12-30T05:08:40.651Z,995.40
2017-12-30T05:09:40.975Z,995.49
2017-12-30T05:10:40.587Z,995.48
2017-12-30T05:11:40.560Z,995.16
2017-12-30T05:12:40.529Z,995.26
2017-12-30T05:13:40.506Z,995.32
2017-12-30T05:14:40.464Z,995.34
2017-12-30T05:15:40.439Z,995.69
2017-12-30T05:16:40.399Z,995.69
2017-12-30T05:17:40.381Z,995.67
2017-12-30T05:18:40.347Z,995.48
2017-12-30T05:19:40.324Z,995.35
2017-12-30T05:20:40.285Z,995.50
2017-12-30T05:21:40.249Z,995.60
2017-12-30T05:22:40.223Z,995.57
2017-12-30T05:23:40.214Z,995.43
2017-12-30T05:24:40.166Z,995.64
2017-12-30T05:25:40.135Z,995.67
2017-12-30T05:26:40.106Z,995.38
2017-12-30T05:27:40.424Z,995.50
2017-12-30T05:28:40.043Z,994.95
2017-12-30T05:29:40.016Z,995.47
2017-12-30T05:30:39.982Z,995.42
2017-12-30T05:31:39.947Z,995.20
2017-12-30T05:32:39.923Z,995.51
2017-12-30T05:33:39.885Z,994.94
2017-12-30T05:34:39.860Z,995.57
2017-12-30T05:35:39.829Z,995.41
2017-12-30T05:36:39.796Z,995.67
2017-12-30T05:37:39.766Z,995.59
2017-12-30T05:38:39.743Z,995.62
2017-12-30T05:39:39.707Z,995.60
2017-12-30T05:40:39.693Z,995.74
2017-12-30T05:41:39.658Z,995.33
2017-12-30T05:42:39.625Z,995.60
2017-12-30T05:43:39.589Z,995.57
2017-12-30T05:44:39.557Z,995.12
2017-12-30T05:45:39.533Z,995.53
2017-12-30T05:46:39.492Z,995.81
2017-12-30T05:47:39.471Z,995.56
2017-12-30T05:48:39.431Z,995.22
2017-12-30T05:49:39.404Z,995.59
2017-12-30T05:50:39.677Z,995.65
2017-12-30T05:51:39.347Z,995.33
2017-12-30T05:52:39.316Z,995.19
2017-12-30T05:53:39.288Z,995.12
2017-12-30T05:54:39.259Z,995.58
2017-12-30T05:55:39.236Z,995.42
2017-12-30T05:56:39.204Z,995.35
2017-12-30T05:57:39.166Z,994.99
2017-12-30T05:58:39.133Z,995.37
2017-12-30T05:59:39.105Z,995.45
2017-12-30T06:00:39.073Z,995.16
2017-12-30T06:01:39.043Z,995.09
2017-12-30T06:02:39.014Z,995.28
2017-12-30T06:03:38.978Z,995.26
2017-12-30T06:04:38.946Z,995.43
2017-12-30T06:05:38.924Z,995.25
2017-12-30T06:06:38.894Z,995.35
2017-12-30T06:07:38.870Z,995.48
2017-12-30T06:08:38.827Z,995.32
2017-12-30T06:09:38.806Z,995.35
2017-12-30T06:10:38.780Z,995.30
2017-12-30T06:11:38.751Z,995.44
2017-12-30T06:12:38.714Z,995.51
2017-12-30T06:13:38.682Z,995.60
2017-12-30T06:14:38.999Z,995.68
2017-12-30T06:15:38.625Z,995.60
2017-12-30T06:16:38.588Z,995.53
2017-12-30T06:17:38.568Z,995.52
2017-12-30T06:18:38.528Z,995.68
2017-12-30T06:19:38.500Z,995.47
2017-12-30T06:20:38.716Z,995.09
2017-12-30T06:21:38.434Z,995.15
2017-12-30T06:22:38.425Z,995.26
2017-12-30T06:23:38.380Z,995.37
2017-12-30T06:24:38.343Z,995.40
2017-12-30T06:25:38.326Z,995.18
2017-12-30T06:26:38.299Z,995.58
2017-12-30T06:27:38.260Z,995.48
2017-12-30T06:28:38.227Z,995.05
2017-12-30T06:29:38.207Z,995.30
2017-12-30T06:30:38.170Z,995.29
2017-12-30T06:31:38.137Z,995.35
2017-12-30T06:32:38.109Z,995.02
2017-12-30T06:33:38.083Z,995.31
2017-12-30T06:34:38.055Z,994.99
2017-12-30T06:35:38.014Z,995.41
2017-12-30T06:36:37.981Z,995.35
2017-12-30T06:37:37.957Z,995.43
2017-12-30T06:38:38.292Z,995.42
2017-12-30T06:39:37.898Z,995.26
2017-12-30T06:40:37.874Z,995.25
2017-12-30T06:41:37.841Z,995.24
2017-12-30T06:42:37.802Z,995.44
2017-12-30T06:43:37.779Z,995.18
2017-12-30T06:44:37.749Z,995.32
2017-12-30T06:45:37.710Z,995.34
2017-12-30T06:46:37.687Z,995.46
2017-12-30T06:47:37.664Z,995.24
2017-12-30T06:48:37.625Z,995.37
2017-12-30T06:49:37.594Z,995.36
2017-12-30T06:50:37.566Z,995.29
2017-12-30T06:51:37.546Z,995.29
2017-12-30T06:52:37.504Z,995.20
2017-12-30T06:53:37.485Z,995.42
2017-12-30T06:54:37.446Z,995.39
2017-12-30T06:55:37.418Z,995.51
2017-12-30T06:56:37.684Z,995.51
2017-12-30T06:57:37.353Z,995.52
2017-12-30T06:58:37.333Z,995.54
2017-12-30T06:59:37.288Z,995.34
2017-12-30T07:00:37.258Z,995.49
2017-12-30T07:01:37.236Z,995.15
2017-12-30T07:02:37.217Z,995.23
2017-12-30T07:03:37.177Z,995.19
2017-12-30T07:04:37.144Z,995.31
2017-12-30T07:05:37.111Z,995.32
2017-12-30T07:06:37.088Z,995.36
2017-12-30T07:07:37.051Z,995.34
2017-12-30T07:08:37.022Z,995.44
2017-12-30T07:09:37.000Z,995.06
2017-12-30T07:10:36.960Z,995.21
2017-12-30T07:11:36.932Z,995.22
2017-12-30T07:12:36.908Z,995.29
2017-12-30T07:13:36.878Z,995.39
2017-12-30T07:14:36.844Z,995.31
2017-12-30T07:15:36.815Z,995.36
2017-12-30T07:16:36.779Z,995.25
2017-12-30T07:17:36.751Z,995.31
2017-12-30T07:18:36.721Z,995.49
2017-12-30T07:19:36.693Z,995.32
2017-12-30T07:20:36.665Z,995.25
2017-12-30T07:21:36.627Z,995.39
2017-12-30T07:22:36.604Z,995.43
2017-12-30T07:23:36.574Z,995.39
2017-12-30T07:24:36.545Z,995.43
2017-12-30T07:25:36.521Z,995.52
2017-12-30T07:26:36.776Z,995.42
2017-12-30T07:27:36.450Z,995.34
2017-12-30T07:28:36.431Z,995.43
2017-12-30T07:29:36.397Z,995.37
2017-12-30T07:30:36.364Z,995.33
2017-12-30T07:31:36.578Z,995.56
2017-12-30T07:32:36.303Z,995.53
2017-12-30T07:33:36.284Z,995.31
2017-12-30T07:34:36.239Z,995.48
2017-12-30T07:35:36.214Z,995.40
2017-12-30T07:36:36.184Z,995.42
2017-12-30T07:37:36.150Z,995.32
2017-12-30T07:38:36.117Z,995.31
2017-12-30T07:39:36.096Z,995.35
2017-12-30T07:40:36.068Z,995.39
2017-12-30T07:41:36.037Z,995.30
2017-12-30T07:42:35.997Z,995.49
2017-12-30T07:43:35.964Z,995.26
2017-12-30T07:44:35.942Z,995.29
2017-12-30T07:45:35.912Z,995.41
2017-12-30T07:46:35.879Z,995.46
2017-12-30T07:47:35.852Z,995.44
2017-12-30T07:48:35.819Z,995.65
2017-12-30T07:49:36.139Z,995.54
2017-12-30T07:50:35.786Z,995.47
2017-12-30T07:51:35.725Z,995.15
2017-12-30T07:52:35.723Z,995.29
2017-12-30T07:53:35.661Z,995.11
2017-12-30T07:54:35.645Z,995.35
2017-12-30T07:55:35.611Z,995.32
2017-12-30T07:56:35.581Z,995.33
2017-12-30T07:57:35.592Z,995.45
2017-12-30T07:58:35.515Z,995.09
2017-12-30T07:59:35.483Z,995.23
2017-12-30T08:00:35.464Z,995.17
2017-12-30T08:01:35.434Z,995.33
2017-12-30T08:02:35.392Z,995.28
2017-12-30T08:03:35.362Z,995.24
2017-12-30T08:04:35.338Z,995.23
2017-12-30T08:05:35.298Z,994.93
2017-12-30T08:06:35.280Z,995.01
2017-12-30T08:07:35.249Z,995.15
2017-12-30T08:08:35.208Z,995.09
2017-12-30T08:09:35.192Z,995.09
2017-12-30T08:10:35.209Z,995.05
2017-12-30T08:11:35.134Z,995.13
2017-12-30T08:12:35.101Z,994.77
2017-12-30T08:13:35.074Z,995.05
2017-12-30T08:14:35.029Z,995.02
2017-12-30T08:15:35.011Z,995.05
2017-12-30T08:16:34.980Z,995.07
2017-12-30T08:17:34.944Z,994.78
2017-12-30T08:18:35.157Z,995.11
2017-12-30T08:19:34.878Z,994.78
2017-12-30T08:20:34.859Z,995.02
2017-12-30T08:21:34.824Z,994.69
2017-12-30T08:22:34.794Z,994.86
2017-12-30T08:23:34.769Z,995.05
2017-12-30T08:24:34.732Z,995.03
2017-12-30T08:25:34.696Z,994.98
2017-12-30T08:26:34.676Z,995.02
2017-12-30T08:27:34.640Z,995.11
2017-12-30T08:28:34.612Z,994.89
2017-12-30T08:29:34.581Z,994.85
2017-12-30T08:30:34.553Z,994.76
2017-12-30T08:31:34.521Z,994.83
2017-12-30T08:32:34.495Z,994.74
2017-12-30T08:33:34.460Z,994.92
2017-12-30T08:34:34.451Z,994.80
2017-12-30T08:35:34.404Z,994.95
2017-12-30T08:36:34.675Z,995.00
2017-12-30T08:37:34.344Z,995.06
2017-12-30T08:38:34.318Z,995.04
2017-12-30T08:39:34.289Z,994.97
2017-12-30T08:40:34.254Z,994.81
2017-12-30T08:41:34.218Z,994.99
2017-12-30T08:42:34.446Z,994.93
2017-12-30T08:43:34.161Z,995.00
2017-12-30T08:44:34.131Z,994.89
2017-12-30T08:45:34.100Z,994.85
2017-12-30T08:46:34.065Z,995.23
2017-12-30T08:47:34.044Z,994.98
2017-12-30T08:48:34.269Z,994.95
2017-12-30T08:49:33.975Z,995.02
2017-12-30T08:50:33.964Z,994.89
2017-12-30T08:51:33.926Z,994.90
2017-12-30T08:52:33.911Z,994.98
2017-12-30T08:53:33.863Z,995.04
2017-12-30T08:54:33.838Z,994.99
2017-12-30T08:55:33.813Z,995.01
2017-12-30T08:56:33.790Z,994.95
2017-12-30T08:57:33.746Z,994.91
2017-12-30T08:58:33.722Z,994.95
2017-12-30T08:59:33.686Z,994.95
2017-12-30T09:00:33.644Z,994.93
2017-12-30T09:01:33.616Z,994.94
2017-12-30T09:02:33.590Z,994.98
2017-12-30T09:03:33.564Z,994.77
2017-12-30T09:04:33.528Z,994.82
2017-12-30T09:05:33.503Z,994.82
2017-12-30T09:06:33.474Z,994.86
2017-12-30T09:07:33.441Z,994.79
2017-12-30T09:08:33.409Z,994.78
2017-12-30T09:09:33.396Z,994.62
2017-12-30T09:10:33.359Z,994.82
2017-12-30T09:11:33.323Z,994.82
2017-12-30T09:12:33.293Z,994.87
2017-12-30T09:13:33.261Z,994.82
2017-12-30T09:14:33.230Z,994.73
2017-12-30T09:15:33.198Z,994.77
2017-12-30T09:16:33.179Z,994.74
2017-12-30T09:17:33.147Z,994.72
2017-12-30T09:18:33.113Z,994.67
2017-12-30T09:19:33.088Z,994.68
2017-12-30T09:20:33.053Z,994.77
2017-12-30T09:21:33.018Z,994.64
2017-12-30T09:22:32.997Z,994.73
2017-12-30T09:23:32.968Z,994.76
2017-12-30T09:24:32.951Z,994.77
2017-12-30T09:25:32.912Z,994.72
2017-12-30T09:26:32.874Z,994.79
2017-12-30T09:27:32.846Z,994.70
2017-12-30T09:28:32.817Z,994.78
2017-12-30T09:29:32.792Z,994.72
2017-12-30T09:30:32.758Z,994.81
2017-12-30T09:31:32.722Z,994.84
2017-12-30T09:32:32.701Z,994.78
2017-12-30T09:33:32.671Z,994.83
2017-12-30T09:34:32.638Z,994.67
2017-12-30T09:35:32.613Z,994.69
2017-12-30T09:36:32.822Z,994.65
2017-12-30T09:37:32.543Z,994.64
2017-12-30T09:38:32.514Z,994.63
2017-12-30T09:39:32.491Z,994.58
2017-12-30T09:40:32.460Z,994.62
2017-12-30T09:41:32.447Z,994.62
2017-12-30T09:42:32.402Z,994.51
2017-12-30T09:43:32.368Z,994.53
2017-12-30T09:44:32.337Z,994.51
2017-12-30T09:45:32.309Z,994.44
2017-12-30T09:46:32.279Z,994.49
2017-12-30T09:47:32.253Z,994.47
2017-12-30T09:48:32.263Z,994.47
2017-12-30T09:49:32.185Z,994.48
2017-12-30T09:50:32.157Z,994.48
2017-12-30T09:51:32.127Z,994.37
2017-12-30T09:52:32.093Z,994.32
2017-12-30T09:53:32.067Z,994.37
2017-12-30T09:54:32.040Z,994.25
2017-12-30T09:55:32.008Z,994.31
2017-12-30T09:56:31.982Z,994.26
2017-12-30T09:57:31.962Z,994.28
2017-12-30T09:58:31.925Z,994.24
2017-12-30T09:59:31.895Z,994.30
2017-12-30T10:00:31.867Z,994.24
2017-12-30T10:01:31.832Z,994.21
2017-12-30T10:02:31.797Z,994.23
2017-12-30T10:03:31.768Z,994.10
2017-12-30T10:04:31.743Z,994.23
2017-12-30T10:05:31.723Z,994.15
2017-12-30T10:06:31.988Z,994.18
2017-12-30T10:07:31.653Z,994.11
2017-12-30T10:08:31.624Z,994.12
2017-12-30T10:09:31.630Z,993.99
2017-12-30T10:10:31.562Z,994.03
2017-12-30T10:11:31.539Z,994.04
2017-12-30T10:12:31.816Z,994.09
2017-12-30T10:13:31.474Z,994.06
2017-12-30T10:14:31.446Z,993.99
2017-12-30T10:15:31.422Z,993.97
2017-12-30T10:16:31.390Z,993.98
2017-12-30T10:17:31.362Z,993.91
2017-12-30T10:18:31.330Z,993.92
2017-12-30T10:19:31.296Z,993.94
2017-12-30T10:20:31.269Z,993.86
2017-12-30T10:21:31.237Z,993.81
2017-12-30T10:22:31.224Z,993.81
2017-12-30T10:23:31.182Z,993.78
2017-12-30T10:24:31.143Z,993.77
2017-12-30T10:25:31.114Z,993.86
2017-12-30T10:26:31.086Z,993.80
2017-12-30T10:27:31.058Z,993.81
2017-12-30T10:28:31.034Z,993.71
2017-12-30T10:29:30.999Z,993.66
2017-12-30T10:30:30.980Z,993.74
2017-12-30T10:31:30.935Z,993.68
2017-12-30T10:32:30.922Z,993.49
2017-12-30T10:33:30.878Z,993.62
2017-12-30T10:34:30.854Z,993.54
2017-12-30T10:35:30.822Z,993.54
2017-12-30T10:36:31.088Z,993.54
2017-12-30T10:37:30.759Z,993.43
2017-12-30T10:38:30.731Z,993.49
2017-12-30T10:39:30.707Z,993.30
2017-12-30T10:40:30.672Z,993.50
2017-12-30T10:41:30.639Z,993.41
2017-12-30T10:42:30.621Z,993.34
2017-12-30T10:43:30.591Z,993.18
2017-12-30T10:44:30.558Z,993.33
2017-12-30T10:45:30.525Z,993.17
2017-12-30T10:46:30.500Z,993.30
2017-12-30T10:47:31.017Z,993.34
2017-12-30T10:48:30.436Z,993.28
2017-12-30T10:49:30.403Z,993.23
2017-12-30T10:50:30.373Z,993.18
2017-12-30T10:51:30.361Z,993.16
2017-12-30T10:52:30.319Z,993.24
2017-12-30T10:53:30.279Z,992.94
2017-12-30T10:54:30.259Z,993.15
2017-12-30T10:55:30.232Z,993.19
2017-12-30T10:56:30.197Z,992.94
2017-12-30T10:57:30.171Z,993.06
2017-12-30T10:58:30.133Z,992.99
2017-12-30T10:59:30.101Z,993.13
2017-12-30T11:00:30.074Z,992.19
2017-12-30T11:01:30.041Z,992.91
2017-12-30T11:02:30.016Z,993.02
2017-12-30T11:03:29.984Z,992.92
2017-12-30T11:04:29.950Z,992.74
2017-12-30T11:05:30.274Z,992.91
2017-12-30T11:06:29.896Z,992.81
2017-12-30T11:07:29.863Z,992.85
2017-12-30T11:08:29.842Z,992.78
2017-12-30T11:09:29.805Z,992.57
2017-12-30T11:10:29.776Z,992.61
2017-12-30T11:11:29.746Z,992.31
2017-12-30T11:12:29.724Z,992.74
2017-12-30T11:13:29.687Z,992.55
2017-12-30T11:14:29.653Z,992.50
2017-12-30T11:15:29.618Z,992.63
2017-12-30T11:16:29.597Z,992.46
2017-12-30T11:17:29.556Z,992.61
2017-12-30T11:18:29.529Z,992.59
2017-12-30T11:19:29.504Z,992.06
2017-12-30T11:20:29.463Z,992.49
2017-12-30T11:21:29.442Z,992.52
2017-12-30T11:22:29.407Z,992.54
2017-12-30T11:23:29.374Z,992.62
2017-12-30T11:24:29.345Z,992.58
2017-12-30T11:25:29.328Z,992.32
2017-12-30T11:26:29.287Z,992.48
2017-12-30T11:27:29.248Z,992.43
2017-12-30T11:28:29.233Z,992.38
2017-12-30T11:29:29.497Z,992.59
2017-12-30T11:30:29.161Z,992.32
2017-12-30T11:31:29.130Z,992.35
2017-12-30T11:32:29.102Z,992.31
2017-12-30T11:33:29.062Z,992.31
2017-12-30T11:34:29.038Z,992.25
2017-12-30T11:35:29.011Z,992.17
2017-12-30T11:36:28.972Z,992.33
2017-12-30T11:37:28.963Z,992.38
2017-12-30T11:38:28.914Z,992.33
2017-12-30T11:39:28.881Z,992.21
2017-12-30T11:40:28.857Z,992.29
2017-12-30T11:41:28.821Z,992.35
2017-12-30T11:42:28.784Z,992.22
2017-12-30T11:43:28.764Z,992.20
2017-12-30T11:44:28.729Z,992.19
2017-12-30T11:45:28.700Z,992.17
2017-12-30T11:46:28.662Z,992.19
2017-12-30T11:47:28.629Z,992.03
2017-12-30T11:48:28.602Z,991.96
2017-12-30T11:49:28.570Z,992.07
2017-12-30T11:50:28.549Z,992.11
2017-12-30T11:51:28.513Z,992.03
2017-12-30T11:52:28.474Z,991.86
2017-12-30T11:53:28.695Z,991.94
2017-12-30T11:54:28.522Z,991.94
2017-12-30T11:55:28.394Z,992.00
2017-12-30T11:56:28.361Z,991.90
2017-12-30T11:57:28.324Z,991.81
2017-12-30T11:58:28.292Z,991.88
2017-12-30T11:59:28.259Z,991.84
2017-12-30T12:00:28.233Z,991.73
2017-12-30T12:01:28.210Z,991.75
2017-12-30T12:02:28.172Z,991.64
2017-12-30T12:03:28.147Z,991.75
2017-12-30T12:04:28.105Z,991.76
2017-12-30T12:05:28.082Z,991.71
2017-12-30T12:06:28.047Z,991.67
2017-12-30T12:07:28.015Z,991.66
2017-12-30T12:08:27.980Z,991.58
2017-12-30T12:09:27.946Z,991.55
2017-12-30T12:10:27.923Z,991.61
2017-12-30T12:11:27.891Z,991.51
2017-12-30T12:12:27.870Z,991.46
2017-12-30T12:13:27.827Z,991.38
2017-12-30T12:14:27.799Z,991.42
2017-12-30T12:15:27.774Z,991.38
2017-12-30T12:16:27.738Z,991.34
2017-12-30T12:17:27.704Z,991.32
2017-12-30T12:18:27.671Z,991.24
2017-12-30T12:19:27.644Z,991.22
2017-12-30T12:20:27.607Z,991.13
2017-12-30T12:21:27.594Z,991.20
2017-12-30T12:22:27.571Z,991.12
2017-12-30T12:23:27.520Z,991.13
2017-12-30T12:24:27.487Z,991.10
2017-12-30T12:25:27.456Z,991.10
2017-12-30T12:26:27.423Z,991.08
2017-12-30T12:27:27.405Z,991.12
2017-12-30T12:28:27.362Z,991.07